createdAt,value
2017-09-24T07:18:20.055Z,19.53
2017-09-24T07:20:48.581Z,23.60
2017-09-24T07:23:16.971Z,26.53
2017-09-24T07:25:45.510Z,39.63
2017-09-24T07:28:17.785Z,52.03
2017-09-24T07:30:54.330Z,63.60
2017-09-24T07:33:22.877Z,59.00
2017-09-24T07:35:51.425Z,62.03
2017-09-24T07:38:20.071Z,72.00
2017-09-24T07:40:48.506Z,68.30
2017-09-24T07:43:16.993Z,56.90
2017-09-24T07:45:45.402Z,67.10
2017-09-24T07:48:13.780Z,64.57
2017-09-24T07:50:42.156Z,78.73
2017-09-24T07:53:10.512Z,56.40
2017-09-24T07:55:39.025Z,48.43
2017-09-24T07:58:07.468Z,76.83
2017-09-24T08:00:35.921Z,64.50
2017-09-24T08:03:04.512Z,62.03
2017-09-24T08:05:32.918Z,62.13
2017-09-24T08:08:01.303Z,45.13
2017-09-24T08:10:29.865Z,50.67
2017-09-24T08:12:58.256Z,63.50
2017-09-24T08:15:26.729Z,53.40
2017-09-24T08:17:56.361Z,54.43
2017-09-24T08:20:24.891Z,44.23
2017-09-24T08:22:53.919Z,48.80
2017-09-24T08:25:22.581Z,65.50
2017-09-24T08:27:50.986Z,48.43
2017-09-24T08:30:19.819Z,48.83
2017-09-24T08:32:48.451Z,46.23
2017-09-24T08:35:17.771Z,51.70
2017-09-24T08:37:47.360Z,40.00
2017-09-24T08:40:15.884Z,35.63
2017-09-24T08:42:44.419Z,38.70
2017-09-24T08:45:13.266Z,46.67
2017-09-24T08:47:41.873Z,41.60
2017-09-24T08:50:11.773Z,35.57
2017-09-24T08:52:40.373Z,39.53
2017-09-24T08:55:08.858Z,56.00
2017-09-24T08:57:37.866Z,58.90
2017-09-24T09:00:06.451Z,37.80
2017-09-24T09:02:34.883Z,42.23
2017-09-24T09:05:03.362Z,49.90
2017-09-24T09:07:31.968Z,48.83
2017-09-24T09:10:00.370Z,63.63
2017-09-24T09:12:28.807Z,52.67
2017-09-24T09:14:57.233Z,47.47
2017-09-24T09:17:25.713Z,57.50
2017-09-24T09:19:54.177Z,62.23
2017-09-24T09:22:22.584Z,61.80
2017-09-24T09:24:51.887Z,61.03
2017-09-24T09:27:20.474Z,53.50
2017-09-24T09:29:49.450Z,49.50
2017-09-24T09:32:18.685Z,56.33
2017-09-24T09:34:56.658Z,60.13
2017-09-24T09:37:25.313Z,41.40
2017-09-24T09:39:53.982Z,37.43
2017-09-24T09:42:23.504Z,51.03
2017-09-24T09:44:52.982Z,45.90
2017-09-24T09:47:27.075Z,64.13
2017-09-24T09:49:56.562Z,64.00
2017-09-24T09:52:25.119Z,44.67
2017-09-24T09:54:53.596Z,45.50
2017-09-24T09:57:22.616Z,47.07
2017-09-24T09:59:51.796Z,51.53
2017-09-24T10:02:20.371Z,76.90
2017-09-24T10:04:49.130Z,50.10
2017-09-24T10:07:26.582Z,50.07
2017-09-24T10:10:17.001Z,58.60
2017-09-24T10:12:46.891Z,55.60
2017-09-24T10:15:15.411Z,50.67
2017-09-24T10:17:44.215Z,47.10
2017-09-24T10:20:12.655Z,50.70
2017-09-24T10:22:41.943Z,71.80
2017-09-24T10:25:10.761Z,58.77
2017-09-24T10:27:39.733Z,49.97
2017-09-24T10:30:17.318Z,46.70
2017-09-24T10:32:46.470Z,62.80
2017-09-24T10:35:18.315Z,48.77
2017-09-24T10:37:49.636Z,39.70
2017-09-24T10:40:20.284Z,41.80
2017-09-24T10:42:50.275Z,45.07
2017-09-24T10:45:22.070Z,58.87
2017-09-24T10:47:51.529Z,57.90
2017-09-24T10:50:20.173Z,55.60
2017-09-24T10:52:50.366Z,51.10
2017-09-24T10:55:20.013Z,53.63
2017-09-24T10:57:48.882Z,56.50
2017-09-24T11:00:18.761Z,51.03
2017-09-24T11:02:47.863Z,52.77
2017-09-24T11:05:17.417Z,75.30
2017-09-24T11:07:45.840Z,46.27
2017-09-24T11:10:14.769Z,59.00
2017-09-24T11:12:43.396Z,52.20
2017-09-24T11:15:13.434Z,58.93
2017-09-24T11:17:42.569Z,55.67
2017-09-24T11:20:11.083Z,62.63
2017-09-24T11:22:40.239Z,58.23
2017-09-24T11:25:09.475Z,64.17
2017-09-24T11:27:37.936Z,66.60
2017-09-24T11:30:08.802Z,66.80
2017-09-24T11:32:38.056Z,55.27
2017-09-24T11:35:07.936Z,59.50
2017-09-24T11:37:37.164Z,66.10
2017-09-24T11:40:07.633Z,65.73
2017-09-24T11:42:36.419Z,50.40
2017-09-24T11:45:05.490Z,49.77
2017-09-24T11:47:33.916Z,54.83
2017-09-24T11:50:05.628Z,75.27
2017-09-24T11:52:34.633Z,74.53
2017-09-24T11:55:03.341Z,84.93
2017-09-24T11:57:32.316Z,62.53
2017-09-24T12:00:00.948Z,71.93
2017-09-24T12:02:31.611Z,67.00
2017-09-24T12:05:00.270Z,68.50
2017-09-24T12:07:30.313Z,58.10
2017-09-24T12:09:58.742Z,60.30
2017-09-24T12:12:27.156Z,62.97
2017-09-24T12:14:55.589Z,57.17
2017-09-24T12:17:24.006Z,67.77
2017-09-24T12:19:52.442Z,68.40
2017-09-24T12:22:22.686Z,64.80
2017-09-24T12:24:52.883Z,66.23
2017-09-24T12:27:21.745Z,60.17
2017-09-24T12:29:50.269Z,67.10
2017-09-24T12:32:19.853Z,70.97
2017-09-24T12:34:48.499Z,68.03
2017-09-24T12:37:17.255Z,60.77
2017-09-24T12:39:46.407Z,61.47
2017-09-24T12:42:19.408Z,61.73
2017-09-24T12:44:48.909Z,60.37
2017-09-24T12:47:17.888Z,57.20
2017-09-24T12:49:47.100Z,70.33
2017-09-24T12:52:16.588Z,69.20
2017-09-24T12:54:45.919Z,60.00
2017-09-24T12:57:15.350Z,50.90
2017-09-24T12:59:43.841Z,68.07
2017-09-24T13:02:15.080Z,58.00
2017-09-24T13:04:45.937Z,47.83
2017-09-24T13:07:15.542Z,71.87
2017-09-24T13:09:45.786Z,58.77
2017-09-24T13:12:14.809Z,66.10
2017-09-24T13:14:43.890Z,61.87
2017-09-24T13:17:15.645Z,53.33
2017-09-24T13:19:46.228Z,79.50
2017-09-24T13:22:15.047Z,62.10
2017-09-24T13:24:46.799Z,65.33
2017-09-24T13:27:15.454Z,53.40
2017-09-24T13:29:44.031Z,65.43
2017-09-24T13:32:13.314Z,61.73
2017-09-24T13:34:41.762Z,65.27
2017-09-24T13:37:10.264Z,78.40
2017-09-24T13:39:39.117Z,70.30
2017-09-24T13:42:08.635Z,62.20
2017-09-24T13:44:37.597Z,52.40
2017-09-24T13:47:07.747Z,47.30
2017-09-24T13:49:37.735Z,70.97
2017-09-24T13:52:08.204Z,60.87
2017-09-24T13:54:40.928Z,78.13
2017-09-24T13:57:20.496Z,62.63
2017-09-24T13:59:50.251Z,63.53
2017-09-24T14:02:21.923Z,60.17
2017-09-24T14:04:52.699Z,78.30
2017-09-24T14:07:22.953Z,70.50
2017-09-24T14:09:55.387Z,68.90
2017-09-24T14:12:25.740Z,61.40
2017-09-24T14:14:55.979Z,65.37
2017-09-24T14:17:27.345Z,69.30
2017-09-24T14:19:57.867Z,57.30
2017-09-24T14:22:27.874Z,65.70
2017-09-24T14:24:58.103Z,58.30
2017-09-24T14:27:28.145Z,63.53
2017-09-24T14:29:59.122Z,59.13
2017-09-24T14:32:30.971Z,59.27
2017-09-24T14:35:00.472Z,60.80
2017-09-24T14:37:32.074Z,62.90
2017-09-24T14:40:04.028Z,52.97
2017-09-24T14:42:33.705Z,64.07
2017-09-24T14:45:06.993Z,46.57
2017-09-24T14:47:37.643Z,55.83
2017-09-24T14:50:10.921Z,58.27
2017-09-24T14:52:40.177Z,64.17
2017-09-24T14:55:11.822Z,50.47
2017-09-24T14:57:40.785Z,63.77
2017-09-24T15:00:27.600Z,58.10
2017-09-24T15:02:56.234Z,58.63
2017-09-24T15:05:25.072Z,57.70
2017-09-24T15:07:54.801Z,48.63
2017-09-24T15:10:23.371Z,40.77
2017-09-24T15:12:51.752Z,48.13
2017-09-24T15:15:20.102Z,41.83
2017-09-24T15:17:48.597Z,61.83
2017-09-24T15:20:17.557Z,63.00
2017-09-24T15:22:46.160Z,50.90
2017-09-24T15:25:14.653Z,56.03
2017-09-24T15:27:42.966Z,60.53
2017-09-24T15:30:11.303Z,52.90
2017-09-24T15:32:39.822Z,52.60
2017-09-24T15:35:08.216Z,59.10
2017-09-24T15:37:36.576Z,54.47
2017-09-24T15:40:05.027Z,57.20
2017-09-24T15:42:33.297Z,55.90
2017-09-24T15:45:01.815Z,49.83
2017-09-24T15:47:30.224Z,51.90
2017-09-24T15:49:59.297Z,44.20
2017-09-24T15:52:27.747Z,43.27
2017-09-24T15:55:56.051Z,50.07
2017-09-24T15:58:24.352Z,40.60
2017-09-24T16:00:52.809Z,52.37
2017-09-24T16:03:21.317Z,55.63
2017-09-24T16:05:50.198Z,55.00
2017-09-24T16:08:18.521Z,43.00
2017-09-24T16:10:46.968Z,41.13
2017-09-24T16:13:15.332Z,47.63
2017-09-24T16:15:46.972Z,33.60
2017-09-24T16:18:15.601Z,35.63
2017-09-24T16:20:48.163Z,40.83
2017-09-24T16:23:16.830Z,30.97
2017-09-24T16:25:45.327Z,36.00
2017-09-24T16:28:13.662Z,34.73
2017-09-24T16:30:42.003Z,27.70
2017-09-24T16:33:10.423Z,28.07
2017-09-24T16:35:38.741Z,31.43
2017-09-24T16:38:07.064Z,30.97
2017-09-24T16:40:35.670Z,26.33
2017-09-24T16:43:04.099Z,25.90
2017-09-24T16:45:32.671Z,34.13
2017-09-24T16:48:01.425Z,29.33
2017-09-24T16:50:29.780Z,28.67
2017-09-24T16:52:58.243Z,25.90
2017-09-24T16:55:26.563Z,26.70
2017-09-24T16:57:54.894Z,33.30
2017-09-24T17:00:23.240Z,32.00
2017-09-24T17:02:51.564Z,27.80
2017-09-24T17:05:19.897Z,27.27
2017-09-24T17:07:50.914Z,29.40
2017-09-24T17:10:19.494Z,29.63
2017-09-24T17:12:47.783Z,29.63
2017-09-24T17:15:16.449Z,36.23
2017-09-24T17:17:45.177Z,24.03
2017-09-24T17:20:13.566Z,26.73
2017-09-24T17:22:41.904Z,32.30
2017-09-24T17:25:10.260Z,30.07
2017-09-24T17:27:38.579Z,29.20
2017-09-24T17:30:07.885Z,29.00
2017-09-24T17:32:36.368Z,29.33
2017-09-24T17:35:04.771Z,28.27
2017-09-24T17:37:33.194Z,33.53
2017-09-24T17:40:01.455Z,33.20
2017-09-24T17:42:29.808Z,30.70
2017-09-24T17:44:58.116Z,28.50
2017-09-24T17:47:30.266Z,28.43
2017-09-24T17:49:59.775Z,38.50
2017-09-24T17:52:28.298Z,37.20
2017-09-24T17:54:56.666Z,39.87
2017-09-24T17:57:25.567Z,30.83
2017-09-24T17:59:54.811Z,35.00
2017-09-24T18:02:24.854Z,40.37
2017-09-24T18:04:53.256Z,35.87
2017-09-24T18:07:21.639Z,37.10
2017-09-24T18:10:02.080Z,30.20
2017-09-24T18:12:30.549Z,33.97
2017-09-24T18:14:59.612Z,30.00
2017-09-24T18:17:28.665Z,29.37
2017-09-24T18:19:58.748Z,29.93
2017-09-24T18:22:27.216Z,32.80
2017-09-24T18:24:56.547Z,30.20
2017-09-24T18:27:25.079Z,42.50
2017-09-24T18:29:53.524Z,40.20
2017-09-24T18:32:22.727Z,40.60
2017-09-24T18:34:52.196Z,31.87
2017-09-24T18:37:20.664Z,27.53
2017-09-24T18:39:49.347Z,27.20
2017-09-24T18:42:20.572Z,33.33
2017-09-24T18:44:50.171Z,32.17
2017-09-24T18:47:20.932Z,29.70
2017-09-24T18:49:54.620Z,31.73
2017-09-24T18:52:35.356Z,34.70
2017-09-24T18:55:08.206Z,30.77
2017-09-24T18:57:38.497Z,39.23
2017-09-24T19:00:13.218Z,35.90
2017-09-24T19:02:42.227Z,34.50
2017-09-24T19:05:19.282Z,32.53
2017-09-24T19:07:52.498Z,35.10
2017-09-24T19:10:24.665Z,29.83
2017-09-24T19:12:54.536Z,28.47
2017-09-24T19:15:23.593Z,29.10
2017-09-24T19:17:53.144Z,32.40
2017-09-24T19:20:24.307Z,30.47
2017-09-24T19:22:59.350Z,32.13
2017-09-24T19:25:30.295Z,26.90
2017-09-24T19:28:00.959Z,31.43
2017-09-24T19:30:33.723Z,30.33
2017-09-24T19:33:04.947Z,38.77
2017-09-24T19:35:34.912Z,25.33
2017-09-24T19:38:03.271Z,33.00
2017-09-24T19:40:33.507Z,31.60
2017-09-24T19:43:01.833Z,33.87
2017-09-24T19:45:37.339Z,40.27
2017-09-24T19:48:05.755Z,30.00
2017-09-24T19:50:34.262Z,31.70
2017-09-24T19:53:02.747Z,26.20
2017-09-24T19:55:31.346Z,35.73
2017-09-24T19:57:59.836Z,32.83
2017-09-24T20:00:28.822Z,32.97
2017-09-24T20:02:57.406Z,34.60
2017-09-24T20:05:26.372Z,33.10
2017-09-24T20:07:54.875Z,32.67
2017-09-24T20:10:23.336Z,38.13
2017-09-24T20:12:53.220Z,32.93
2017-09-24T20:15:23.039Z,31.20
2017-09-24T20:17:51.688Z,28.17
2017-09-24T20:20:20.050Z,31.90
2017-09-24T20:22:48.368Z,33.40
2017-09-24T20:25:16.891Z,28.27
2017-09-24T20:27:45.242Z,30.00
2017-09-24T20:30:13.747Z,26.50
2017-09-24T20:32:42.071Z,24.70
2017-09-24T20:35:10.425Z,25.40
2017-09-24T20:37:38.994Z,24.40
2017-09-24T20:40:07.494Z,23.73
2017-09-24T20:42:35.820Z,29.00
2017-09-24T20:45:04.150Z,28.43
2017-09-24T20:47:32.463Z,28.20
2017-09-24T20:50:00.732Z,25.60
2017-09-24T20:52:29.116Z,30.93
2017-09-24T20:54:57.423Z,23.50
2017-09-24T20:57:25.783Z,24.97
2017-09-24T20:59:54.285Z,24.87
2017-09-24T21:02:22.795Z,25.63
2017-09-24T21:04:51.241Z,27.03
2017-09-24T21:07:19.577Z,26.10
2017-09-24T21:09:47.875Z,19.57
2017-09-24T21:12:16.268Z,21.60
2017-09-24T21:14:44.755Z,22.30
2017-09-24T21:17:13.694Z,25.00
2017-09-24T21:19:42.012Z,24.93
2017-09-24T21:22:10.418Z,23.60
2017-09-24T21:24:38.714Z,24.50
2017-09-24T21:27:07.124Z,20.70
2017-09-24T21:29:35.415Z,24.77
2017-09-24T21:32:04.812Z,25.93
2017-09-24T21:34:33.355Z,25.03
2017-09-24T21:37:01.828Z,26.60
2017-09-24T21:39:30.159Z,24.13
2017-09-24T21:41:58.595Z,23.43
2017-09-24T21:44:27.646Z,23.13
2017-09-24T21:46:56.841Z,22.87
2017-09-24T21:49:25.132Z,22.73
2017-09-24T21:51:53.609Z,23.53
2017-09-24T21:54:22.227Z,27.50
2017-09-24T21:56:51.463Z,22.40
2017-09-24T21:59:19.845Z,24.13
2017-09-24T22:01:48.735Z,23.37
2017-09-24T22:04:17.260Z,20.73
2017-09-24T22:06:45.700Z,25.80
2017-09-24T22:09:14.163Z,22.23
2017-09-24T22:11:45.865Z,23.53
2017-09-24T22:14:14.604Z,22.67
2017-09-24T22:16:43.257Z,21.70
2017-09-24T22:19:11.649Z,23.03
2017-09-24T22:21:41.043Z,33.20
2017-09-24T22:24:09.693Z,32.97
2017-09-24T22:26:38.690Z,29.53
2017-09-24T22:29:09.488Z,31.53
2017-09-24T22:31:39.686Z,27.43
2017-09-24T22:34:08.521Z,27.10
2017-09-24T22:36:39.935Z,28.73
2017-09-24T22:39:11.157Z,29.17
2017-09-24T22:41:39.648Z,30.10
2017-09-24T22:44:10.825Z,24.20
2017-09-24T22:46:40.072Z,27.70
2017-09-24T22:49:08.696Z,35.57
2017-09-24T22:51:38.097Z,28.40
2017-09-24T22:54:07.623Z,27.70
2017-09-24T22:56:36.269Z,24.93
2017-09-24T22:59:05.085Z,26.73
2017-09-24T23:01:34.788Z,25.07
2017-09-24T23:04:04.648Z,26.87
2017-09-24T23:06:35.286Z,23.27
2017-09-24T23:09:04.995Z,23.20
2017-09-24T23:11:33.499Z,22.40
2017-09-24T23:14:02.197Z,24.27
2017-09-24T23:16:37.376Z,24.27
2017-09-24T23:19:13.164Z,28.60
2017-09-24T23:21:47.222Z,22.10
2017-09-24T23:24:18.596Z,21.20
2017-09-24T23:26:47.814Z,24.00
2017-09-24T23:29:20.396Z,23.53
2017-09-24T23:31:52.968Z,26.27
2017-09-24T23:34:28.118Z,26.23
2017-09-24T23:36:58.238Z,21.50
2017-09-24T23:39:29.532Z,20.20
2017-09-24T23:42:01.970Z,22.50
2017-09-24T23:44:32.108Z,22.03
2017-09-24T23:47:01.979Z,25.13
2017-09-24T23:49:32.815Z,25.87
2017-09-24T23:52:08.771Z,25.83
2017-09-24T23:54:37.554Z,25.30
2017-09-24T23:57:08.889Z,22.03
2017-09-24T23:59:39.047Z,21.30
